createdAt,value
2022-12-11T00:01:34.474Z,51.37
2022-12-11T00:04:03.032Z,49.00
2022-12-11T00:06:31.686Z,48.67
2022-12-11T00:09:02.133Z,47.00
2022-12-11T00:11:31.375Z,45.53
2022-12-11T00:13:59.657Z,43.97
2022-12-11T00:16:28.494Z,43.30
2022-12-11T00:18:57.199Z,43.17
2022-12-11T00:21:25.992Z,42.00
2022-12-11T00:23:54.373Z,43.20
2022-12-11T00:26:24.154Z,44.37
2022-12-11T00:28:55.575Z,41.97
2022-12-11T00:31:25.084Z,42.03
2022-12-11T00:33:53.782Z,44.17
2022-12-11T00:36:24.894Z,48.90
2022-12-11T00:38:54.248Z,47.80
2022-12-11T00:41:24.316Z,49.03
2022-12-11T00:43:52.610Z,46.83
2022-12-11T00:46:21.983Z,48.87
2022-12-11T00:48:50.936Z,48.50
2022-12-11T00:51:19.554Z,48.50
2022-12-11T00:53:48.060Z,50.13
2022-12-11T00:56:18.872Z,50.87
2022-12-11T00:58:49.616Z,52.97
2022-12-11T01:01:20.730Z,53.67
2022-12-11T01:03:49.421Z,51.37
2022-12-11T01:06:19.937Z,49.03
2022-12-11T01:09:09.395Z,48.27
2022-12-11T01:11:37.357Z,47.07
2022-12-11T01:14:07.278Z,49.53
2022-12-11T01:16:35.617Z,48.30
2022-12-11T01:19:04.564Z,47.67
2022-12-11T01:21:32.960Z,45.83
2022-12-11T01:24:01.344Z,45.63
2022-12-11T01:26:30.703Z,46.27
2022-12-11T01:28:59.048Z,46.13
2022-12-11T01:31:28.808Z,46.23
2022-12-11T01:33:57.526Z,46.37
2022-12-11T01:36:26.136Z,44.77
2022-12-11T01:38:54.510Z,45.70
2022-12-11T01:41:23.249Z,45.53
2022-12-11T01:44:03.251Z,44.60
2022-12-11T01:46:34.495Z,44.50
2022-12-11T01:49:05.572Z,42.20
2022-12-11T01:51:37.194Z,44.30
2022-12-11T01:54:08.816Z,44.60
2022-12-11T01:56:39.066Z,43.17
2022-12-11T01:59:10.091Z,42.53
2022-12-11T02:01:42.415Z,42.90
2022-12-11T02:04:12.343Z,44.63
2022-12-11T02:06:42.717Z,45.13
2022-12-11T02:09:13.926Z,44.87
2022-12-11T02:11:51.352Z,44.33
2022-12-11T02:14:27.954Z,44.27
2022-12-11T02:17:02.035Z,43.67
2022-12-11T02:19:50.273Z,41.67
2022-12-11T02:22:51.930Z,40.83
2022-12-11T02:25:26.967Z,39.70
2022-12-11T02:28:07.993Z,40.10
2022-12-11T02:30:41.103Z,38.73
2022-12-11T02:33:12.644Z,40.07
2022-12-11T02:35:43.252Z,38.07
2022-12-11T02:38:15.813Z,39.60
2022-12-11T02:40:45.728Z,37.03
2022-12-11T02:43:18.415Z,38.50
2022-12-11T02:45:48.017Z,35.80
2022-12-11T02:48:18.290Z,36.70
2022-12-11T02:50:48.955Z,36.50
2022-12-11T02:53:21.158Z,37.27
2022-12-11T02:55:53.594Z,36.17
2022-12-11T02:58:27.870Z,36.03
2022-12-11T03:00:56.568Z,36.63
2022-12-11T03:03:24.991Z,35.30
2022-12-11T03:05:53.391Z,36.63
2022-12-11T03:08:21.918Z,35.77
2022-12-11T03:10:50.391Z,35.47
2022-12-11T03:13:21.952Z,34.50
2022-12-11T03:16:07.303Z,34.77
2022-12-11T03:18:41.309Z,33.50
2022-12-11T03:21:16.240Z,33.03
2022-12-11T03:23:51.337Z,34.33
2022-12-11T03:26:21.671Z,32.60
2022-12-11T03:28:55.558Z,33.83
2022-12-11T03:31:29.471Z,32.37
2022-12-11T03:34:02.883Z,31.90
2022-12-11T03:36:34.761Z,33.07
2022-12-11T03:39:09.016Z,32.53
2022-12-11T03:41:40.348Z,32.40
2022-12-11T03:44:09.855Z,32.73
2022-12-11T03:46:42.097Z,31.87
2022-12-11T03:49:16.370Z,32.27
2022-12-11T03:51:47.895Z,32.10
2022-12-11T03:54:18.059Z,31.80
2022-12-11T03:56:47.790Z,32.50
2022-12-11T03:59:16.654Z,31.40
2022-12-11T04:01:46.700Z,32.27
2022-12-11T04:04:15.333Z,32.77
2022-12-11T04:06:43.727Z,32.83
2022-12-11T04:09:12.219Z,33.70
2022-12-11T04:11:42.765Z,34.37
2022-12-11T04:14:30.339Z,35.33
2022-12-11T04:17:01.821Z,33.73
2022-12-11T04:19:47.322Z,35.30
2022-12-11T04:22:35.380Z,33.97
2022-12-11T04:25:05.816Z,33.47
2022-12-11T04:27:53.084Z,33.93
2022-12-11T04:30:26.018Z,34.20
2022-12-11T04:32:57.842Z,34.57
2022-12-11T04:35:26.110Z,34.03
2022-12-11T04:37:54.521Z,35.07
2022-12-11T04:40:23.282Z,33.90
2022-12-11T04:42:51.821Z,34.73
2022-12-11T04:45:20.140Z,34.67
2022-12-11T04:47:48.392Z,32.87
2022-12-11T04:50:18.058Z,34.50
2022-12-11T04:52:46.574Z,33.63
2022-12-11T04:55:14.974Z,33.43
2022-12-11T04:57:43.187Z,33.00
2022-12-11T05:00:13.802Z,32.47
2022-12-11T05:02:43.665Z,33.47
2022-12-11T05:05:12.932Z,33.33
2022-12-11T05:07:43.044Z,33.50
2022-12-11T05:10:11.665Z,34.43
2022-12-11T05:12:40.137Z,34.13
2022-12-11T05:15:09.831Z,33.60
2022-12-11T05:17:38.336Z,32.90
2022-12-11T05:20:07.569Z,33.40
2022-12-11T05:22:36.175Z,34.60
2022-12-11T05:25:07.046Z,34.00
2022-12-11T05:27:35.405Z,32.50
2022-12-11T05:30:03.787Z,32.63
2022-12-11T05:32:32.138Z,31.83
2022-12-11T05:35:00.482Z,32.67
2022-12-11T05:37:28.796Z,32.77
2022-12-11T05:39:57.064Z,34.13
2022-12-11T05:42:28.970Z,33.37
2022-12-11T05:44:57.576Z,34.33
2022-12-11T05:47:25.820Z,34.33
2022-12-11T05:49:54.059Z,34.63
2022-12-11T05:52:22.711Z,34.20
2022-12-11T05:54:51.899Z,34.40
2022-12-11T05:57:20.469Z,33.97
2022-12-11T05:59:50.050Z,35.30
2022-12-11T06:02:18.403Z,35.07
2022-12-11T06:04:47.039Z,34.50
2022-12-11T06:07:15.411Z,36.30
2022-12-11T06:09:43.860Z,37.93
2022-12-11T06:12:12.346Z,45.73
2022-12-11T06:14:40.978Z,35.67
2022-12-11T06:17:10.987Z,35.03
2022-12-11T06:19:39.575Z,33.57
2022-12-11T06:22:07.932Z,36.03
2022-12-11T06:24:36.155Z,35.37
2022-12-11T06:27:04.813Z,33.27
2022-12-11T06:29:33.350Z,32.13
2022-12-11T06:32:01.772Z,34.47
2022-12-11T06:34:31.462Z,34.20
2022-12-11T06:36:59.820Z,35.00
2022-12-11T06:39:28.168Z,34.70
2022-12-11T06:41:56.414Z,39.37
2022-12-11T06:44:24.969Z,36.00
2022-12-11T06:46:53.203Z,35.47
2022-12-11T06:49:21.756Z,33.67
2022-12-11T06:51:51.522Z,36.37
2022-12-11T06:54:19.903Z,36.10
2022-12-11T06:56:48.544Z,35.93
2022-12-11T06:59:16.802Z,35.33
2022-12-11T07:01:45.167Z,35.47
2022-12-11T07:04:13.495Z,33.80
2022-12-11T07:06:42.110Z,35.20
2022-12-11T07:09:11.906Z,32.87
2022-12-11T07:11:40.201Z,32.03
2022-12-11T07:14:08.897Z,33.40
2022-12-11T07:16:37.413Z,34.10
2022-12-11T07:19:06.125Z,38.70
2022-12-11T07:21:34.553Z,40.37
2022-12-11T07:24:03.051Z,39.33
2022-12-11T07:26:33.173Z,35.90
2022-12-11T07:29:02.270Z,37.20
2022-12-11T07:31:31.798Z,40.10
2022-12-11T07:34:02.358Z,40.23
2022-12-11T07:36:31.259Z,33.47
2022-12-11T07:39:00.679Z,39.00
2022-12-11T07:41:29.351Z,45.73
2022-12-11T07:44:01.314Z,38.20
2022-12-11T07:46:31.627Z,36.80
2022-12-11T07:49:00.843Z,35.67
2022-12-11T07:51:31.278Z,34.53
2022-12-11T07:54:01.427Z,36.80
2022-12-11T07:56:31.194Z,44.53
2022-12-11T07:59:02.326Z,35.77
2022-12-11T08:01:32.765Z,34.27
2022-12-11T08:04:01.064Z,35.47
2022-12-11T08:06:32.549Z,35.23
2022-12-11T08:09:02.447Z,36.33
2022-12-11T08:11:31.001Z,36.70
2022-12-11T08:14:01.446Z,36.43
2022-12-11T08:16:30.190Z,35.03
2022-12-11T08:18:59.976Z,36.97
2022-12-11T08:21:29.705Z,35.53
2022-12-11T08:23:58.233Z,37.47
2022-12-11T08:26:27.915Z,34.63
2022-12-11T08:28:56.937Z,36.30
2022-12-11T08:31:27.052Z,37.67
2022-12-11T08:33:56.952Z,33.70
2022-12-11T08:36:26.338Z,34.83
2022-12-11T08:38:56.241Z,32.87
2022-12-11T08:41:26.613Z,34.07
2022-12-11T08:43:56.138Z,33.47
2022-12-11T08:46:28.017Z,38.07
2022-12-11T08:48:57.835Z,34.87
2022-12-11T08:51:28.540Z,33.07
2022-12-11T08:53:58.547Z,32.90
2022-12-11T08:56:27.653Z,32.23
2022-12-11T08:58:56.282Z,29.17
2022-12-11T09:01:27.856Z,27.93
2022-12-11T09:03:57.577Z,27.40
2022-12-11T09:06:27.800Z,24.00
2022-12-11T09:08:57.181Z,29.63
2022-12-11T09:11:27.380Z,26.03
2022-12-11T09:13:56.223Z,25.73
2022-12-11T09:16:26.304Z,25.03
2022-12-11T09:18:57.926Z,24.80
2022-12-11T09:21:27.905Z,24.43
2022-12-11T09:23:57.680Z,23.87
2022-12-11T09:26:27.417Z,23.70
2022-12-11T09:28:55.809Z,23.17
2022-12-11T09:31:26.924Z,25.87
2022-12-11T09:33:58.647Z,24.77
2022-12-11T09:36:27.871Z,26.93
2022-12-11T09:38:56.275Z,23.80
2022-12-11T09:41:36.062Z,25.20
2022-12-11T09:44:20.818Z,25.30
2022-12-11T09:46:50.036Z,25.83
2022-12-11T09:49:27.017Z,25.93
2022-12-11T09:52:08.475Z,27.27
2022-12-11T09:54:38.316Z,26.23
2022-12-11T09:57:20.075Z,25.13
2022-12-11T10:00:05.661Z,23.87
2022-12-11T10:02:45.901Z,27.10
2022-12-11T10:05:25.658Z,25.80
2022-12-11T10:08:01.675Z,26.03
2022-12-11T10:10:40.780Z,26.97
2022-12-11T10:13:17.942Z,28.83
2022-12-11T10:15:53.029Z,25.73
2022-12-11T10:18:25.194Z,29.60
2022-12-11T10:20:56.726Z,32.60
2022-12-11T10:23:35.707Z,31.47
2022-12-11T10:26:08.112Z,25.90
2022-12-11T10:28:37.335Z,25.33
2022-12-11T10:31:15.421Z,25.20
2022-12-11T10:33:56.009Z,26.47
2022-12-11T10:36:30.977Z,25.50
2022-12-11T10:39:00.229Z,25.23
2022-12-11T10:41:39.266Z,25.43
2022-12-11T10:44:18.988Z,28.33
2022-12-11T10:46:48.743Z,28.17
2022-12-11T10:49:25.605Z,28.97
2022-12-11T10:51:57.132Z,27.97
2022-12-11T10:54:34.999Z,25.27
2022-12-11T10:57:04.737Z,25.63
2022-12-11T10:59:39.255Z,25.67
2022-12-11T11:02:16.777Z,25.93
2022-12-11T11:04:46.015Z,24.13
2022-12-11T11:07:20.659Z,25.63
2022-12-11T11:09:49.713Z,37.73
2022-12-11T11:12:23.502Z,25.43
2022-12-11T11:15:02.573Z,27.13
2022-12-11T11:17:35.100Z,26.73
2022-12-11T11:20:14.000Z,26.63
2022-12-11T11:22:47.026Z,27.33
2022-12-11T11:25:20.953Z,27.30
2022-12-11T11:27:55.893Z,27.07
2022-12-11T11:30:26.786Z,30.63
2022-12-11T11:32:57.982Z,28.07
2022-12-11T11:35:28.756Z,31.63
2022-12-11T11:38:04.840Z,27.43
2022-12-11T11:40:39.471Z,26.53
2022-12-11T11:43:16.788Z,29.53
2022-12-11T11:45:53.162Z,28.03
2022-12-11T11:48:32.282Z,27.43
2022-12-11T11:51:04.744Z,29.00
2022-12-11T11:53:40.598Z,28.83
2022-12-11T11:56:21.324Z,31.73
2022-12-11T11:58:59.285Z,28.30
2022-12-11T12:01:28.137Z,28.30
2022-12-11T12:03:57.468Z,28.70
2022-12-11T12:06:35.485Z,26.80
2022-12-11T12:09:19.094Z,25.80
2022-12-11T12:11:54.291Z,25.70
2022-12-11T12:14:51.654Z,27.03
2022-12-11T12:17:25.810Z,25.37
2022-12-11T12:20:05.325Z,25.73
2022-12-11T12:23:01.665Z,26.83
2022-12-11T12:25:38.862Z,25.50
2022-12-11T12:28:18.433Z,26.00
2022-12-11T12:30:58.163Z,26.90
2022-12-11T12:33:38.313Z,32.60
2022-12-11T12:36:17.624Z,28.50
2022-12-11T12:38:54.816Z,30.67
2022-12-11T12:41:31.232Z,28.23
2022-12-11T12:44:14.923Z,26.40
2022-12-11T12:46:57.134Z,25.93
2022-12-11T12:49:36.456Z,25.53
2022-12-11T12:52:07.718Z,26.07
2022-12-11T12:54:37.273Z,25.80
2022-12-11T12:57:07.123Z,25.93
2022-12-11T12:59:35.302Z,27.43
2022-12-11T13:02:05.084Z,29.33
2022-12-11T13:04:58.219Z,26.87
2022-12-11T13:07:30.769Z,26.43
2022-12-11T13:10:07.298Z,27.10
2022-12-11T13:12:43.515Z,26.90
2022-12-11T13:15:36.704Z,27.37
2022-12-11T13:18:27.157Z,27.90
2022-12-11T13:20:55.726Z,28.23
2022-12-11T13:23:29.782Z,28.10
2022-12-11T13:25:59.965Z,26.43
2022-12-11T13:28:33.508Z,23.67
2022-12-11T13:31:08.427Z,24.30
2022-12-11T13:33:44.083Z,25.17
2022-12-11T13:36:32.157Z,22.60
2022-12-11T13:39:03.703Z,23.63
2022-12-11T13:41:36.274Z,25.77
2022-12-11T13:44:07.553Z,24.90
2022-12-11T13:46:39.921Z,26.57
2022-12-11T13:49:18.076Z,25.43
2022-12-11T13:51:53.764Z,27.33
2022-12-11T13:54:22.046Z,23.40
2022-12-11T13:57:16.763Z,23.97
2022-12-11T13:59:50.116Z,24.53
2022-12-11T14:02:23.709Z,25.03
2022-12-11T14:04:55.179Z,23.80
2022-12-11T14:07:27.514Z,24.07
2022-12-11T14:10:00.216Z,26.43
2022-12-11T14:12:30.041Z,26.53
2022-12-11T14:15:03.066Z,29.70
2022-12-11T14:17:34.996Z,27.63
2022-12-11T14:20:07.698Z,28.00
2022-12-11T14:22:36.711Z,26.33
2022-12-11T14:25:21.766Z,28.93
2022-12-11T14:27:51.834Z,29.77
2022-12-11T14:30:26.367Z,28.67
2022-12-11T14:32:58.178Z,27.97
2022-12-11T14:35:34.148Z,29.33
2022-12-11T14:38:17.803Z,27.27
2022-12-11T14:40:50.981Z,31.83
2022-12-11T14:43:25.613Z,30.13
2022-12-11T14:46:00.350Z,29.33
2022-12-11T14:48:33.066Z,27.17
2022-12-11T14:51:07.060Z,30.13
2022-12-11T14:53:38.996Z,27.63
2022-12-11T14:56:10.466Z,27.87
2022-12-11T14:58:44.493Z,25.57
2022-12-11T15:01:27.229Z,27.27
2022-12-11T15:04:05.266Z,29.30
2022-12-11T15:06:35.248Z,30.33
2022-12-11T15:09:25.870Z,30.43
2022-12-11T15:11:57.466Z,29.13
2022-12-11T15:14:26.724Z,31.40
2022-12-11T15:16:58.831Z,30.53
2022-12-11T15:19:31.092Z,30.23
2022-12-11T15:22:04.057Z,29.37
2022-12-11T15:24:38.571Z,29.57
2022-12-11T15:27:07.499Z,27.00
2022-12-11T15:29:37.731Z,27.60
2022-12-11T15:32:19.482Z,29.97
2022-12-11T15:34:49.978Z,32.13
2022-12-11T15:37:24.055Z,30.30
2022-12-11T15:39:52.904Z,35.03
2022-12-11T15:42:27.329Z,39.40
2022-12-11T15:44:56.819Z,44.63
2022-12-11T15:47:28.641Z,28.20
2022-12-11T15:49:59.029Z,28.10
2022-12-11T15:52:27.344Z,27.87
2022-12-11T15:54:55.679Z,27.20
2022-12-11T15:57:25.789Z,30.57
2022-12-11T15:59:55.998Z,31.20
2022-12-11T16:02:26.892Z,33.33
2022-12-11T16:04:58.707Z,30.03
2022-12-11T16:07:27.989Z,30.40
2022-12-11T16:09:56.184Z,28.77
2022-12-11T16:12:24.732Z,30.13
2022-12-11T16:14:53.069Z,29.27
2022-12-11T16:17:21.389Z,28.80
2022-12-11T16:19:49.777Z,30.60
2022-12-11T16:22:19.512Z,29.67
2022-12-11T16:24:47.927Z,29.87
2022-12-11T16:27:21.400Z,28.73
2022-12-11T16:29:52.062Z,31.30
2022-12-11T16:32:21.342Z,31.07
2022-12-11T16:34:49.870Z,31.17
2022-12-11T16:37:19.703Z,31.60
2022-12-11T16:39:48.479Z,30.97
2022-12-11T16:42:16.905Z,32.10
2022-12-11T16:44:45.162Z,33.53
2022-12-11T16:47:13.939Z,31.30
2022-12-11T16:49:43.321Z,32.37
2022-12-11T16:52:11.693Z,35.43
2022-12-11T16:54:41.589Z,34.03
2022-12-11T16:57:10.028Z,34.23
2022-12-11T16:59:38.766Z,36.37
2022-12-11T17:02:07.574Z,37.37
2022-12-11T17:04:35.854Z,42.63
2022-12-11T17:07:05.059Z,41.57
2022-12-11T17:09:33.989Z,39.63
2022-12-11T17:12:04.523Z,43.00
2022-12-11T17:14:33.153Z,41.30
2022-12-11T17:17:01.945Z,43.37
2022-12-11T17:19:30.747Z,40.27
2022-12-11T17:21:59.021Z,42.20
2022-12-11T17:24:28.352Z,42.63
2022-12-11T17:26:57.171Z,41.63
2022-12-11T17:29:26.903Z,43.37
2022-12-11T17:31:56.283Z,46.33
2022-12-11T17:34:24.516Z,48.27
2022-12-11T17:36:52.765Z,50.30
2022-12-11T17:39:21.657Z,48.97
2022-12-11T17:41:50.104Z,52.70
2022-12-11T17:44:18.682Z,60.93
2022-12-11T17:46:48.316Z,59.07
2022-12-11T17:49:17.433Z,55.30
2022-12-11T17:51:45.831Z,46.53
2022-12-11T17:54:14.354Z,52.70
2022-12-11T17:56:43.442Z,45.23
2022-12-11T17:59:11.869Z,41.70
2022-12-11T18:01:40.504Z,41.87
2022-12-11T18:04:12.145Z,41.97
2022-12-11T18:06:40.707Z,40.87
2022-12-11T18:09:10.274Z,41.27
2022-12-11T18:11:38.890Z,49.90
2022-12-11T18:14:11.108Z,45.40
2022-12-11T18:16:43.296Z,44.40
2022-12-11T18:19:13.053Z,41.13
2022-12-11T18:21:44.184Z,41.50
2022-12-11T18:24:12.910Z,39.40
2022-12-11T18:26:42.677Z,40.00
2022-12-11T18:29:11.274Z,38.70
2022-12-11T18:31:42.579Z,41.27
2022-12-11T18:34:13.609Z,39.17
2022-12-11T18:36:42.170Z,42.45
2022-12-11T18:39:11.366Z,41.97
2022-12-11T18:41:40.726Z,42.87
2022-12-11T18:44:10.141Z,38.67
2022-12-11T18:46:39.725Z,48.75
2022-12-11T18:49:08.507Z,42.13
2022-12-11T18:51:38.280Z,38.60
2022-12-11T18:54:06.848Z,37.53
2022-12-11T18:56:35.224Z,36.93
2022-12-11T18:59:03.606Z,36.03
2022-12-11T19:01:33.549Z,35.47
2022-12-11T19:04:07.740Z,37.57
2022-12-11T19:06:40.481Z,36.07
2022-12-11T19:09:10.363Z,38.67
2022-12-11T19:11:41.175Z,38.40
2022-12-11T19:14:10.118Z,38.53
2022-12-11T19:16:41.362Z,38.30
2022-12-11T19:19:13.289Z,40.13
2022-12-11T19:21:43.982Z,37.30
2022-12-11T19:24:16.272Z,32.93
2022-12-11T19:26:45.317Z,36.40
2022-12-11T19:29:20.095Z,35.30
2022-12-11T19:31:49.332Z,37.47
2022-12-11T19:34:18.044Z,37.13
2022-12-11T19:36:48.474Z,37.77
2022-12-11T19:39:17.011Z,34.63
2022-12-11T19:41:45.675Z,32.87
2022-12-11T19:44:14.005Z,37.30
2022-12-11T19:46:42.981Z,36.43
2022-12-11T19:49:12.951Z,36.43
2022-12-11T19:51:42.822Z,37.40
2022-12-11T19:54:15.615Z,35.43
2022-12-11T19:56:44.450Z,36.23
2022-12-11T19:59:15.909Z,33.27
2022-12-11T20:01:46.810Z,31.73
2022-12-11T20:04:18.326Z,31.90
2022-12-11T20:06:47.772Z,33.10
2022-12-11T20:09:18.511Z,33.10
2022-12-11T20:11:48.381Z,32.93
2022-12-11T20:14:23.540Z,33.37
2022-12-11T20:19:41.204Z,33.03
2022-12-11T20:22:10.302Z,33.90
2022-12-11T20:24:40.551Z,35.50
2022-12-11T20:27:12.303Z,36.03
2022-12-11T20:29:40.950Z,34.17
2022-12-11T20:32:11.376Z,33.77
2022-12-11T20:34:40.098Z,33.97
2022-12-11T20:37:08.958Z,35.20
2022-12-11T20:39:37.936Z,32.73
2022-12-11T20:42:10.515Z,34.07
2022-12-11T20:44:42.692Z,31.87
2022-12-11T20:47:14.698Z,31.83
2022-12-11T20:49:43.784Z,31.63
2022-12-11T20:52:12.567Z,32.50
2022-12-11T20:54:41.027Z,31.83
2022-12-11T20:57:10.915Z,30.43
2022-12-11T20:59:40.285Z,32.17
2022-12-11T21:02:10.228Z,35.53
2022-12-11T21:04:41.019Z,34.93
2022-12-11T21:07:10.532Z,34.00
2022-12-11T21:09:39.986Z,34.87
2022-12-11T21:12:11.544Z,32.47
2022-12-11T21:14:40.431Z,31.23
2022-12-11T21:17:08.743Z,31.30
2022-12-11T21:19:38.193Z,31.67
2022-12-11T21:22:06.809Z,29.63
2022-12-11T21:24:36.109Z,30.90
2022-12-11T21:27:05.059Z,29.53
2022-12-11T21:29:35.554Z,31.60
2022-12-11T21:32:04.840Z,30.40
2022-12-11T21:34:35.076Z,30.97
2022-12-11T21:37:05.016Z,31.83
2022-12-11T21:39:38.984Z,31.37
2022-12-11T21:42:10.725Z,32.07
2022-12-11T21:47:31.360Z,32.47
2022-12-11T21:49:59.969Z,31.93
2022-12-11T21:52:28.957Z,30.50
2022-12-11T21:54:57.526Z,30.90
2022-12-11T21:57:26.690Z,30.90
2022-12-11T21:59:56.834Z,31.47
2022-12-11T22:02:25.152Z,31.83
2022-12-11T22:04:53.651Z,31.27
2022-12-11T22:07:23.358Z,30.43
2022-12-11T22:09:51.830Z,30.53
2022-12-11T22:12:25.005Z,30.13
2022-12-11T22:14:53.703Z,32.67
2022-12-11T22:17:25.911Z,32.37
2022-12-11T22:19:54.413Z,34.10
2022-12-11T22:22:23.124Z,34.53
2022-12-11T22:24:51.466Z,34.10
2022-12-11T22:27:23.685Z,33.40
2022-12-11T22:29:52.488Z,33.03
2022-12-11T22:32:20.989Z,33.70
2022-12-11T22:34:50.735Z,31.63
2022-12-11T22:37:18.967Z,33.33
2022-12-11T22:39:47.517Z,33.50
2022-12-11T22:42:15.798Z,32.83
2022-12-11T22:44:44.594Z,33.17
2022-12-11T22:47:13.171Z,35.27
2022-12-11T22:49:41.611Z,33.77
2022-12-11T22:52:11.405Z,32.10
2022-12-11T22:54:39.922Z,33.33
2022-12-11T22:57:08.359Z,33.40
2022-12-11T22:59:37.373Z,34.30
2022-12-11T23:02:05.706Z,33.10
2022-12-11T23:04:34.270Z,34.30
2022-12-11T23:07:02.713Z,33.27
2022-12-11T23:09:32.542Z,30.50
2022-12-11T23:12:02.135Z,30.53
2022-12-11T23:14:30.458Z,30.67
2022-12-11T23:16:58.797Z,30.37
2022-12-11T23:19:27.357Z,29.93
2022-12-11T23:21:55.676Z,30.90
2022-12-11T23:24:24.212Z,30.40
2022-12-11T23:26:54.028Z,27.70
2022-12-11T23:29:22.620Z,30.93
2022-12-11T23:31:51.179Z,29.87
2022-12-11T23:34:19.680Z,30.07
2022-12-11T23:36:47.930Z,30.63
2022-12-11T23:39:16.225Z,31.83
2022-12-11T23:41:45.013Z,31.90
2022-12-11T23:44:14.767Z,32.33
2022-12-11T23:46:44.937Z,34.53
2022-12-11T23:49:13.260Z,37.70
2022-12-11T23:51:43.714Z,37.47
2022-12-11T23:54:12.086Z,37.10
2022-12-11T23:56:40.560Z,38.37
2022-12-11T23:59:08.863Z,45.37
